Time;durP1;ratioP1;P1;durP2;ratioP2;P2;SDS_P1;SDS_P2;PMS_P1;PMS_P2;Temp;Humidity;BMP_temperature;BMP_pressure;BME280_temperature;BME280_humidity;BME280_pressure;Samples;Min_cycle;Max_cycle;Signal;HPM_P1;HPM_P2
2021/12/19 00:00:42;;;;;;;;;;;7.60;99.90;;;;;;5072654;28;20321;-62
2021/12/19 00:08:49;;;;;;;;;;;7.60;99.90;;;;;;5073014;28;20435;-62
2021/12/19 00:11:14;;;;;;;;;;;7.70;99.90;;;;;;5072508;28;20545;-63
2021/12/19 00:13:40;;;;;;;;;;;7.60;99.90;;;;;;5072192;28;19999;-62
2021/12/19 00:16:07;;;;;;;;;;;7.60;99.90;;;;;;5072350;28;19962;-62
2021/12/19 00:18:32;;;;;;;;;;;7.70;99.90;;;;;;5072621;28;20403;-62
2021/12/19 00:20:58;;;;;;;;;;;7.70;99.90;;;;;;5072325;28;19916;-62
2021/12/19 00:23:24;;;;;;;;;;;7.70;99.90;;;;;;5072222;28;20025;-62
2021/12/19 00:25:49;;;;;;;;;;;7.70;99.90;;;;;;5054339;28;20445;-62
2021/12/19 00:28:15;;;;;;;;;;;7.70;99.90;;;;;;5072281;28;19920;-62
2021/12/19 00:30:40;;;;;;;;;;;7.60;99.90;;;;;;5071950;28;19916;-62
2021/12/19 00:33:06;;;;;;;;;;;7.70;99.90;;;;;;5072097;28;19916;-61
2021/12/19 00:35:31;;;;;;;;;;;7.70;99.90;;;;;;5054035;28;19916;-61
2021/12/19 00:37:56;;;;;;;;;;;7.70;99.90;;;;;;5071949;28;19974;-62
2021/12/19 00:40:22;;;;;;;;;;;7.70;99.90;;;;;;5053609;28;20019;-61
2021/12/19 00:43:03;;;;;;;;;;;7.70;99.90;;;;;;5071806;28;19923;-63
2021/12/19 00:45:34;;;;;;;;;;;7.70;99.90;;;;;;5071933;28;20409;-63
2021/12/19 00:48:01;;;;;;;;;;;7.70;99.90;;;;;;5071791;28;19985;-61
2021/12/19 00:50:27;;;;;;;;;;;7.70;99.90;;;;;;5071887;28;19922;-62
2021/12/19 00:52:53;;;;;;;;;;;7.70;99.90;;;;;;5071730;28;19916;-62
2021/12/19 00:55:19;;;;;;;;;;;7.70;99.90;;;;;;5071708;28;20007;-62
2021/12/19 00:57:45;;;;;;;;;;;7.70;99.90;;;;;;5053476;28;19973;-62
2021/12/19 01:00:12;;;;;;;;;;;7.70;99.90;;;;;;5053497;28;19920;-62
2021/12/19 01:02:37;;;;;;;;;;;7.70;99.90;;;;;;5053773;28;20011;-62
2021/12/19 01:05:03;;;;;;;;;;;7.70;99.90;;;;;;5071630;28;20006;-62
2021/12/19 01:07:29;;;;;;;;;;;7.70;99.90;;;;;;5071331;28;20358;-62
2021/12/19 01:09:54;;;;;;;;;;;7.70;99.90;;;;;;5071317;28;20337;-62
2021/12/19 01:12:20;;;;;;;;;;;7.70;99.90;;;;;;5071550;28;19924;-62
2021/12/19 01:14:45;;;;;;;;;;;7.70;99.90;;;;;;5053476;28;19923;-62
2021/12/19 01:17:11;;;;;;;;;;;7.70;99.90;;;;;;5071083;28;19943;-62
2021/12/19 01:19:36;;;;;;;;;;;7.70;99.90;;;;;;5071256;28;19916;-62
2021/12/19 01:22:02;;;;;;;;;;;7.70;99.90;;;;;;5071120;28;20002;-63
2021/12/19 01:24:28;;;;;;;;;;;7.70;99.90;;;;;;5071285;28;19916;-64
2021/12/19 01:26:53;;;;;;;;;;;7.70;99.90;;;;;;5070903;28;19927;-62
2021/12/19 01:29:19;;;;;;;;;;;7.80;99.90;;;;;;5053091;28;19958;-62
2021/12/19 01:31:44;;;;;;;;;;;7.80;99.90;;;;;;5086591;28;20274;-63
2021/12/19 01:34:13;;;;;;;;;;;7.70;99.90;;;;;;5091188;28;19977;-62
2021/12/19 01:36:42;;;;;;;;;;;7.70;99.90;;;;;;5091093;28;19961;-62
2021/12/19 01:39:08;;;;;;;;;;;7.80;99.90;;;;;;5091124;28;20400;-63
2021/12/19 01:41:34;;;;;;;;;;;7.80;99.90;;;;;;5090893;28;19916;-62
2021/12/19 01:43:59;;;;;;;;;;;7.70;99.90;;;;;;5090977;28;20390;-63
2021/12/19 01:46:25;;;;;;;;;;;7.80;99.90;;;;;;5091055;28;19920;-62
2021/12/19 01:48:50;;;;;;;;;;;7.80;99.90;;;;;;5072905;28;20351;-62
2021/12/19 01:51:16;;;;;;;;;;;7.80;99.90;;;;;;5090908;28;19922;-62
2021/12/19 01:53:42;;;;;;;;;;;7.80;99.90;;;;;;5090499;28;19922;-63
2021/12/19 01:56:07;;;;;;;;;;;7.80;99.90;;;;;;5072496;28;20374;-63
2021/12/19 01:58:33;;;;;;;;;;;7.80;99.90;;;;;;5090956;28;19927;-62
2021/12/19 02:00:59;;;;;;;;;;;7.80;99.90;;;;;;5072521;28;19920;-63
2021/12/19 02:03:26;;;;;;;;;;;7.80;99.90;;;;;;5072341;28;19920;-62
2021/12/19 02:05:51;;;;;;;;;;;7.80;99.90;;;;;;5090788;28;19923;-62
2021/12/19 02:08:17;;;;;;;;;;;7.80;99.90;;;;;;5090611;28;19915;-63
2021/12/19 02:10:43;;;;;;;;;;;7.80;99.90;;;;;;5090512;28;19920;-62
2021/12/19 02:13:10;;;;;;;;;;;7.80;99.90;;;;;;5090482;28;19973;-63
2021/12/19 02:15:36;;;;;;;;;;;7.80;99.90;;;;;;5090688;28;20281;-62
2021/12/19 02:18:06;;;;;;;;;;;7.80;99.90;;;;;;5090676;28;20402;-62
2021/12/19 02:20:52;;;;;;;;;;;7.80;99.90;;;;;;5090417;28;20289;-62
2021/12/19 02:23:18;;;;;;;;;;;7.80;99.90;;;;;;5090020;28;20335;-62
2021/12/19 02:25:44;;;;;;;;;;;7.80;99.90;;;;;;5072312;28;19916;-62
2021/12/19 02:28:10;;;;;;;;;;;7.70;99.90;;;;;;5090592;28;19942;-61
2021/12/19 02:30:35;;;;;;;;;;;7.70;99.90;;;;;;5090184;28;19920;-62
2021/12/19 02:33:01;;;;;;;;;;;7.70;99.90;;;;;;5072026;28;19915;-63
2021/12/19 02:35:31;;;;;;;;;;;7.70;99.90;;;;;;5090312;28;19963;-63
2021/12/19 02:48:28;;;;;;;;;;;7.70;99.90;;;;;;5090555;28;19927;-62
2021/12/19 02:50:54;;;;;;;;;;;7.70;99.90;;;;;;5072090;28;19924;-62
2021/12/19 02:53:27;;;;;;;;;;;7.70;99.90;;;;;;5090026;28;19956;-62
2021/12/19 02:55:53;;;;;;;;;;;7.70;99.90;;;;;;5090099;28;20289;-63
2021/12/19 02:58:18;;;;;;;;;;;7.70;99.90;;;;;;5071933;28;19927;-63
2021/12/19 03:00:44;;;;;;;;;;;7.60;99.90;;;;;;5072265;28;20372;-63
2021/12/19 03:03:09;;;;;;;;;;;7.60;99.90;;;;;;5089932;28;19999;-64
2021/12/19 03:05:37;;;;;;;;;;;7.60;99.90;;;;;;5075745;28;19997;-62
2021/12/19 03:08:03;;;;;;;;;;;7.60;99.90;;;;;;5094126;28;20358;-63
2021/12/19 03:18:28;;;;;;;;;;;7.60;99.90;;;;;;5093627;28;20293;-63
2021/12/19 03:20:53;;;;;;;;;;;7.60;99.90;;;;;;5093920;28;19916;-63
2021/12/19 03:23:19;;;;;;;;;;;7.60;99.90;;;;;;5093644;28;20383;-63
2021/12/19 03:25:44;;;;;;;;;;;7.60;99.90;;;;;;5093502;28;19916;-63
2021/12/19 03:28:10;;;;;;;;;;;7.60;99.90;;;;;;5093757;28;19916;-63
2021/12/19 03:30:36;;;;;;;;;;;7.50;99.90;;;;;;5075519;28;19923;-63
2021/12/19 03:33:02;;;;;;;;;;;7.60;99.90;;;;;;5093555;28;19923;-62
2021/12/19 03:35:29;;;;;;;;;;;7.50;99.90;;;;;;5075237;28;19916;-63
2021/12/19 03:37:55;;;;;;;;;;;7.50;99.90;;;;;;5075236;28;19930;-63
2021/12/19 03:40:23;;;;;;;;;;;7.50;99.90;;;;;;5093027;28;19916;-62
2021/12/19 03:42:50;;;;;;;;;;;7.50;99.90;;;;;;5093388;28;20450;-62
2021/12/19 03:45:17;;;;;;;;;;;7.50;99.90;;;;;;5093520;28;20010;-62
2021/12/19 03:47:44;;;;;;;;;;;7.50;99.90;;;;;;5093314;28;19931;-63
2021/12/19 03:50:11;;;;;;;;;;;7.60;99.90;;;;;;5093143;28;20504;-63
2021/12/19 03:52:36;;;;;;;;;;;7.50;99.90;;;;;;5092918;28;19916;-62
2021/12/19 03:55:02;;;;;;;;;;;7.50;99.90;;;;;;5093187;28;19916;-62
2021/12/19 03:57:28;;;;;;;;;;;7.50;99.90;;;;;;5074904;28;19920;-62
2021/12/19 03:59:53;;;;;;;;;;;7.50;99.90;;;;;;5093075;28;19916;-62
2021/12/19 04:02:29;;;;;;;;;;;7.50;99.90;;;;;;5092784;28;19938;-63
2021/12/19 04:04:55;;;;;;;;;;;7.50;99.90;;;;;;5093201;28;19943;-62
2021/12/19 04:07:21;;;;;;;;;;;7.50;99.90;;;;;;5092735;28;19967;-62
2021/12/19 04:09:47;;;;;;;;;;;7.40;99.90;;;;;;5092913;28;19990;-62
2021/12/19 04:12:13;;;;;;;;;;;7.40;99.90;;;;;;5092701;28;19927;-61
2021/12/19 04:14:38;;;;;;;;;;;7.40;99.90;;;;;;5074664;28;19916;-61
2021/12/19 04:17:04;;;;;;;;;;;7.30;99.90;;;;;;5091816;28;20596;-62
2021/12/19 04:19:29;;;;;;;;;;;7.30;99.90;;;;;;5092576;28;19916;-62
2021/12/19 04:21:55;;;;;;;;;;;7.30;99.90;;;;;;5092077;28;19920;-61
2021/12/19 04:24:21;;;;;;;;;;;7.30;99.90;;;;;;5092743;28;20271;-61
2021/12/19 04:26:46;;;;;;;;;;;7.20;99.90;;;;;;5074619;28;20302;-62
2021/12/19 04:29:12;;;;;;;;;;;7.30;99.90;;;;;;5092415;28;19949;-62
2021/12/19 04:31:38;;;;;;;;;;;7.20;99.90;;;;;;5092512;28;19969;-62
2021/12/19 04:34:04;;;;;;;;;;;7.20;99.90;;;;;;5092220;28;19923;-62
2021/12/19 04:36:34;;;;;;;;;;;7.20;99.90;;;;;;5092159;28;19923;-61
2021/12/19 04:58:14;;;;;;;;;;;7.20;99.90;;;;;;5092034;28;19994;-61
2021/12/19 05:00:52;;;;;;;;;;;7.20;99.90;;;;;;5091987;28;19923;-61
2021/12/19 05:14:19;;;;;;;;;;;7.20;99.90;;;;;;5091305;28;19972;-62
2021/12/19 05:16:46;;;;;;;;;;;7.20;99.90;;;;;;5073634;28;20011;-62
2021/12/19 05:19:41;;;;;;;;;;;7.20;99.90;;;;;;5091766;28;20396;-61
2021/12/19 05:22:07;;;;;;;;;;;7.20;99.90;;;;;;5091344;28;19916;-61
2021/12/19 05:25:01;;;;;;;;;;;7.20;99.90;;;;;;5091287;28;19922;-62
2021/12/19 05:27:26;;;;;;;;;;;7.20;99.90;;;;;;5091006;28;19915;-62
2021/12/19 05:29:52;;;;;;;;;;;7.10;99.90;;;;;;5091381;28;19916;-61
2021/12/19 05:32:17;;;;;;;;;;;7.10;99.90;;;;;;5091150;28;19973;-62
2021/12/19 05:34:43;;;;;;;;;;;7.10;99.90;;;;;;5091129;28;19916;-60
2021/12/19 05:45:20;;;;;;;;;;;7.10;99.90;;;;;;5090796;28;19923;-62
2021/12/19 05:47:50;;;;;;;;;;;7.10;99.90;;;;;;5091125;28;19916;-61
2021/12/19 05:50:17;;;;;;;;;;;7.10;99.90;;;;;;5091137;28;19919;-62
2021/12/19 05:52:44;;;;;;;;;;;7.10;99.90;;;;;;5090968;28;19927;-62
2021/12/19 05:55:09;;;;;;;;;;;7.10;99.90;;;;;;5090996;28;19916;-62
2021/12/19 05:57:35;;;;;;;;;;;7.10;99.90;;;;;;5090583;28;19931;-64
2021/12/19 06:00:00;;;;;;;;;;;7.10;99.90;;;;;;5090561;28;20430;-61
2021/12/19 06:02:26;;;;;;;;;;;7.10;99.90;;;;;;5090781;28;19922;-61
2021/12/19 06:04:52;;;;;;;;;;;7.10;99.90;;;;;;5090952;28;19923;-62
2021/12/19 06:07:17;;;;;;;;;;;7.10;99.90;;;;;;5072416;28;19916;-62
2021/12/19 06:09:43;;;;;;;;;;;7.10;99.90;;;;;;5074861;28;19995;-61
2021/12/19 06:12:08;;;;;;;;;;;7.20;99.90;;;;;;5052300;28;19924;-60
2021/12/19 06:14:34;;;;;;;;;;;7.20;99.90;;;;;;5069814;28;19970;-60
2021/12/19 06:17:00;;;;;;;;;;;7.20;99.90;;;;;;5051831;28;19916;-60
2021/12/19 06:19:26;;;;;;;;;;;7.20;99.90;;;;;;5052194;28;19993;-61
2021/12/19 06:21:51;;;;;;;;;;;7.20;99.90;;;;;;5069993;28;20378;-61
2021/12/19 06:24:17;;;;;;;;;;;7.20;99.90;;;;;;5070356;28;19942;-61
2021/12/19 06:26:43;;;;;;;;;;;7.20;99.90;;;;;;5070079;28;19920;-61
2021/12/19 06:29:08;;;;;;;;;;;7.30;99.90;;;;;;5069682;28;19962;-61
2021/12/19 06:31:34;;;;;;;;;;;7.30;99.90;;;;;;5052205;28;19916;-61
2021/12/19 06:33:59;;;;;;;;;;;7.30;99.90;;;;;;5070302;28;20012;-61
2021/12/19 06:36:25;;;;;;;;;;;7.30;99.90;;;;;;5070233;28;20345;-62
2021/12/19 06:38:50;;;;;;;;;;;7.30;99.90;;;;;;5070779;28;20084;-61
2021/12/19 06:41:16;;;;;;;;;;;7.30;99.90;;;;;;5074270;28;19921;-61
2021/12/19 06:43:41;;;;;;;;;;;7.30;99.90;;;;;;5073975;28;19916;-61
2021/12/19 06:46:08;;;;;;;;;;;7.30;99.90;;;;;;5056313;28;19916;-62
2021/12/19 06:48:34;;;;;;;;;;;7.30;99.90;;;;;;5074136;28;20397;-61
2021/12/19 06:50:59;;;;;;;;;;;7.30;99.90;;;;;;5056000;28;19924;-61
2021/12/19 06:53:25;;;;;;;;;;;7.30;99.90;;;;;;5073865;28;19920;-61
2021/12/19 06:55:50;;;;;;;;;;;7.30;99.90;;;;;;5074285;28;19920;-61
2021/12/19 06:58:16;;;;;;;;;;;7.30;99.90;;;;;;5073627;28;19921;-62
2021/12/19 07:00:41;;;;;;;;;;;7.30;99.90;;;;;;5073825;28;19922;-61
2021/12/19 07:03:09;;;;;;;;;;;7.30;99.90;;;;;;5073803;28;20011;-61
2021/12/19 07:05:35;;;;;;;;;;;7.30;99.90;;;;;;5073996;28;19970;-61
2021/12/19 07:08:00;;;;;;;;;;;7.30;99.90;;;;;;5073843;28;19920;-61
2021/12/19 07:10:25;;;;;;;;;;;7.40;99.90;;;;;;5073707;28;19920;-62
2021/12/19 07:12:51;;;;;;;;;;;7.30;99.90;;;;;;5073231;28;19916;-62
2021/12/19 07:15:18;;;;;;;;;;;7.40;99.90;;;;;;5073910;28;19916;-61
2021/12/19 07:17:44;;;;;;;;;;;7.40;99.90;;;;;;5073808;28;19920;-62
2021/12/19 07:20:10;;;;;;;;;;;7.40;99.90;;;;;;5073549;28;19924;-61
2021/12/19 07:22:35;;;;;;;;;;;7.40;99.90;;;;;;5073286;28;20417;-60
2021/12/19 07:25:00;;;;;;;;;;;7.40;99.90;;;;;;5073483;28;20309;-61
2021/12/19 07:27:26;;;;;;;;;;;7.40;99.90;;;;;;5073328;28;19916;-61
2021/12/19 07:29:55;;;;;;;;;;;7.40;99.90;;;;;;5073716;28;19969;-62
2021/12/19 07:32:21;;;;;;;;;;;7.40;99.90;;;;;;5073062;28;19923;-61
2021/12/19 07:34:48;;;;;;;;;;;7.40;99.90;;;;;;5093582;28;19916;-62
2021/12/19 07:37:13;;;;;;;;;;;7.40;99.90;;;;;;5091890;28;19931;-61
2021/12/19 07:39:51;;;;;;;;;;;7.40;99.90;;;;;;5090130;28;19916;-62
2021/12/19 07:42:17;;;;;;;;;;;7.40;99.90;;;;;;5090252;28;20378;-61
2021/12/19 07:44:42;;;;;;;;;;;7.40;99.90;;;;;;5090656;28;20026;-62
2021/12/19 07:47:08;;;;;;;;;;;7.40;99.90;;;;;;5090502;28;19920;-61
2021/12/19 07:49:33;;;;;;;;;;;7.50;99.90;;;;;;5089402;28;19927;-61
2021/12/19 07:51:59;;;;;;;;;;;7.40;99.90;;;;;;5089942;28;20034;-62
2021/12/19 07:54:24;;;;;;;;;;;7.50;99.90;;;;;;5089978;28;19923;-61
2021/12/19 07:56:51;;;;;;;;;;;7.50;99.90;;;;;;5089905;28;20016;-61
2021/12/19 07:59:17;;;;;;;;;;;7.50;99.90;;;;;;5090053;28;19999;-61
2021/12/19 08:01:43;;;;;;;;;;;7.50;99.90;;;;;;5089707;28;20112;-61
2021/12/19 08:04:09;;;;;;;;;;;7.50;99.90;;;;;;5071580;28;19920;-61
2021/12/19 08:06:34;;;;;;;;;;;7.50;99.90;;;;;;5089839;28;20007;-61
2021/12/19 08:09:07;;;;;;;;;;;7.50;99.90;;;;;;5089741;28;20140;-61
2021/12/19 08:11:42;;;;;;;;;;;7.40;99.90;;;;;;5089734;28;19919;-61
2021/12/19 08:14:12;;;;;;;;;;;7.50;99.90;;;;;;5073283;28;19941;-61
2021/12/19 08:16:38;;;;;;;;;;;7.50;99.90;;;;;;5092754;28;19922;-61
2021/12/19 08:19:04;;;;;;;;;;;7.50;99.90;;;;;;5092711;28;20519;-62
2021/12/19 08:21:29;;;;;;;;;;;7.50;99.90;;;;;;5092474;28;19922;-61
2021/12/19 08:23:58;;;;;;;;;;;7.50;99.90;;;;;;5092564;28;20020;-61
2021/12/19 08:26:24;;;;;;;;;;;7.50;99.90;;;;;;5092670;28;19916;-61
2021/12/19 08:28:50;;;;;;;;;;;7.50;99.90;;;;;;5092538;28;19959;-62
2021/12/19 08:31:15;;;;;;;;;;;7.50;99.90;;;;;;5092477;28;20028;-61
2021/12/19 08:33:41;;;;;;;;;;;7.50;99.90;;;;;;5074101;28;19916;-62
2021/12/19 08:36:07;;;;;;;;;;;7.50;99.90;;;;;;5092162;28;19985;-62
2021/12/19 08:38:33;;;;;;;;;;;7.50;99.90;;;;;;5092296;28;19920;-62
2021/12/19 08:40:59;;;;;;;;;;;7.50;99.90;;;;;;5092502;28;20314;-62
2021/12/19 08:43:24;;;;;;;;;;;7.50;99.90;;;;;;5092151;28;19969;-62
2021/12/19 08:45:50;;;;;;;;;;;7.50;99.90;;;;;;5092236;28;19923;-62
2021/12/19 08:48:18;;;;;;;;;;;7.50;99.90;;;;;;5092157;28;20007;-62
2021/12/19 08:50:44;;;;;;;;;;;7.50;99.90;;;;;;5091987;28;19920;-62
2021/12/19 08:53:09;;;;;;;;;;;7.50;99.90;;;;;;5091801;28;20343;-60
2021/12/19 08:55:35;;;;;;;;;;;7.50;99.90;;;;;;5073864;28;19973;-61
2021/12/19 08:58:01;;;;;;;;;;;7.50;99.90;;;;;;5073703;28;19973;-62
2021/12/19 09:00:26;;;;;;;;;;;7.50;99.90;;;;;;5073972;28;20298;-62
2021/12/19 09:02:55;;;;;;;;;;;7.60;99.90;;;;;;5056133;28;20573;-62
2021/12/19 09:05:21;;;;;;;;;;;7.60;99.90;;;;;;5091607;28;19916;-62
2021/12/19 09:07:46;;;;;;;;;;;7.60;99.90;;;;;;5091569;28;19915;-61
2021/12/19 09:10:12;;;;;;;;;;;7.60;99.90;;;;;;5091866;28;20003;-61
2021/12/19 09:12:38;;;;;;;;;;;7.60;99.90;;;;;;5091816;28;20427;-62
2021/12/19 09:15:04;;;;;;;;;;;7.60;99.90;;;;;;5091678;28;19915;-61
2021/12/19 09:17:29;;;;;;;;;;;7.60;99.90;;;;;;5091397;28;19971;-62
2021/12/19 09:19:55;;;;;;;;;;;7.60;99.90;;;;;;5091123;28;20386;-62
2021/12/19 09:22:20;;;;;;;;;;;7.60;99.90;;;;;;5091575;28;19963;-62
2021/12/19 09:24:46;;;;;;;;;;;7.60;99.90;;;;;;5073214;28;19927;-61
2021/12/19 09:27:11;;;;;;;;;;;7.70;99.90;;;;;;5089059;28;19916;-61
2021/12/19 09:29:37;;;;;;;;;;;7.70;99.90;;;;;;5070779;28;19916;-62
2021/12/19 09:32:02;;;;;;;;;;;7.70;99.90;;;;;;5070921;28;19923;-62
2021/12/19 09:34:28;;;;;;;;;;;7.70;99.90;;;;;;5070938;28;19961;-62
2021/12/19 09:36:54;;;;;;;;;;;7.70;99.90;;;;;;5070949;28;19916;-62
2021/12/19 09:39:20;;;;;;;;;;;7.70;99.90;;;;;;5070896;28;19916;-61
2021/12/19 09:41:46;;;;;;;;;;;7.80;99.90;;;;;;5070871;28;20427;-62
2021/12/19 09:44:14;;;;;;;;;;;7.70;99.90;;;;;;5070806;28;19916;-62
2021/12/19 09:46:42;;;;;;;;;;;7.80;99.90;;;;;;5070793;28;19923;-62
2021/12/19 09:49:09;;;;;;;;;;;7.80;99.90;;;;;;5070412;28;19939;-62
2021/12/19 09:51:35;;;;;;;;;;;7.80;99.90;;;;;;5070554;28;19923;-62
2021/12/19 09:54:00;;;;;;;;;;;7.80;99.90;;;;;;5070258;28;19924;-62
2021/12/19 09:56:26;;;;;;;;;;;7.80;99.90;;;;;;5067416;28;19920;-62
2021/12/19 09:58:53;;;;;;;;;;;7.80;99.90;;;;;;5069288;28;19975;-62
2021/12/19 10:01:18;;;;;;;;;;;7.90;99.90;;;;;;5069225;28;19916;-62
2021/12/19 10:03:44;;;;;;;;;;;7.90;99.90;;;;;;5069083;28;19916;-63
2021/12/19 10:06:15;;;;;;;;;;;7.90;99.90;;;;;;5069475;28;19916;-62
2021/12/19 10:08:41;;;;;;;;;;;7.90;99.90;;;;;;5065624;28;20050;-62
2021/12/19 10:11:29;;;;;;;;;;;7.90;99.90;;;;;;5069534;28;20389;-62
2021/12/19 10:13:55;;;;;;;;;;;7.90;99.90;;;;;;5068779;28;19916;-62
2021/12/19 10:16:29;;;;;;;;;;;8.00;99.90;;;;;;5051137;28;19927;-62
2021/12/19 10:18:57;;;;;;;;;;;8.00;99.90;;;;;;5067910;28;19920;-62
2021/12/19 10:21:23;;;;;;;;;;;7.90;99.90;;;;;;5069841;28;20393;-62
2021/12/19 10:23:48;;;;;;;;;;;8.00;99.90;;;;;;5051328;28;19917;-62
2021/12/19 10:26:14;;;;;;;;;;;8.00;99.90;;;;;;5069191;28;20439;-62
2021/12/19 10:28:54;;;;;;;;;;;8.00;99.90;;;;;;5069005;28;19923;-62
2021/12/19 10:31:19;;;;;;;;;;;8.00;99.90;;;;;;5067248;28;19916;-62
2021/12/19 10:33:46;;;;;;;;;;;8.00;99.90;;;;;;5068933;28;19916;-62
2021/12/19 10:36:12;;;;;;;;;;;8.10;99.90;;;;;;5069138;28;19916;-62
2021/12/19 10:38:48;;;;;;;;;;;8.10;99.90;;;;;;5069064;28;19932;-62
2021/12/19 10:41:30;;;;;;;;;;;8.10;99.90;;;;;;5066362;28;19916;-61
2021/12/19 10:44:03;;;;;;;;;;;8.10;99.90;;;;;;5066689;28;20386;-62
2021/12/19 10:46:37;;;;;;;;;;;8.10;99.90;;;;;;5068862;28;19923;-62
2021/12/19 10:49:03;;;;;;;;;;;8.10;99.90;;;;;;5069088;28;19977;-62
2021/12/19 10:51:33;;;;;;;;;;;8.00;99.90;;;;;;5068658;28;19981;-62
2021/12/19 10:54:03;;;;;;;;;;;8.00;99.90;;;;;;5068781;28;19920;-62
2021/12/19 10:56:31;;;;;;;;;;;8.00;99.90;;;;;;5069306;28;20301;-62
2021/12/19 10:58:58;;;;;;;;;;;8.00;99.90;;;;;;5068627;28;19993;-61
2021/12/19 11:01:28;;;;;;;;;;;8.10;99.90;;;;;;5068967;28;19923;-61
2021/12/19 11:04:05;;;;;;;;;;;8.10;99.90;;;;;;5051218;28;19923;-62
2021/12/19 11:06:39;;;;;;;;;;;8.10;99.90;;;;;;5060863;28;19999;-61
2021/12/19 11:09:09;;;;;;;;;;;8.10;99.90;;;;;;5051188;28;19931;-61
2021/12/19 11:11:51;;;;;;;;;;;8.10;99.90;;;;;;5069687;28;19924;-61
2021/12/19 11:14:22;;;;;;;;;;;8.10;99.90;;;;;;5069440;28;20375;-61
2021/12/19 11:16:48;;;;;;;;;;;8.10;99.90;;;;;;5069229;28;20718;-61
2021/12/19 11:19:13;;;;;;;;;;;8.10;99.90;;;;;;5050756;28;19921;-61
2021/12/19 11:21:39;;;;;;;;;;;8.10;99.90;;;;;;5068494;28;19917;-61
2021/12/19 11:24:08;;;;;;;;;;;8.20;99.90;;;;;;5069593;28;19969;-61
2021/12/19 11:26:34;;;;;;;;;;;8.20;99.90;;;;;;5072785;28;20313;-60
2021/12/19 11:29:00;;;;;;;;;;;8.20;99.90;;;;;;5055003;28;19916;-61
2021/12/19 11:31:27;;;;;;;;;;;8.20;99.90;;;;;;5073032;28;19930;-61
2021/12/19 11:33:52;;;;;;;;;;;8.20;99.90;;;;;;5073251;28;19916;-61
2021/12/19 11:36:18;;;;;;;;;;;8.20;99.90;;;;;;5073168;28;19916;-61
2021/12/19 11:38:45;;;;;;;;;;;8.30;99.90;;;;;;5073035;28;19950;-61
2021/12/19 11:41:10;;;;;;;;;;;8.30;99.90;;;;;;5073013;28;20497;-61
2021/12/19 11:43:37;;;;;;;;;;;8.30;99.90;;;;;;5072311;28;19927;-61
2021/12/19 11:46:10;;;;;;;;;;;8.20;99.90;;;;;;5072312;28;20023;-61
2021/12/19 11:48:36;;;;;;;;;;;8.30;99.90;;;;;;5053677;28;19987;-62
2021/12/19 11:51:22;;;;;;;;;;;8.30;99.90;;;;;;5053934;28;19916;-61
2021/12/19 11:53:47;;;;;;;;;;;8.20;99.90;;;;;;5072210;28;19962;-60
2021/12/19 11:56:17;;;;;;;;;;;8.30;99.90;;;;;;5072836;28;19952;-61
2021/12/19 11:58:49;;;;;;;;;;;8.30;99.90;;;;;;5072788;28;19943;-62
2021/12/19 12:01:15;;;;;;;;;;;8.30;99.90;;;;;;5072726;28;20383;-61
2021/12/19 12:03:43;;;;;;;;;;;8.30;99.90;;;;;;5072725;28;20003;-60
2021/12/19 12:06:09;;;;;;;;;;;8.30;99.90;;;;;;5072850;28;19920;-60
2021/12/19 12:08:34;;;;;;;;;;;8.30;99.90;;;;;;5072548;28;19962;-59
2021/12/19 12:11:01;;;;;;;;;;;8.30;99.90;;;;;;5072929;28;19916;-60
2021/12/19 12:13:27;;;;;;;;;;;8.30;99.90;;;;;;5054451;28;19924;-61
2021/12/19 12:16:06;;;;;;;;;;;8.20;99.90;;;;;;5072861;28;20416;-62
2021/12/19 12:18:36;;;;;;;;;;;8.20;99.90;;;;;;5072390;28;20679;-61
2021/12/19 12:21:26;;;;;;;;;;;8.20;99.90;;;;;;5072254;28;20581;-59
2021/12/19 12:23:57;;;;;;;;;;;8.20;99.90;;;;;;5054272;28;19917;-62
2021/12/19 12:26:27;;;;;;;;;;;8.20;99.90;;;;;;5054616;28;19916;-60
2021/12/19 12:28:53;;;;;;;;;;;8.20;99.90;;;;;;5072282;28;19963;-61
2021/12/19 12:31:19;;;;;;;;;;;8.30;99.90;;;;;;5053772;28;20038;-60
2021/12/19 12:33:45;;;;;;;;;;;8.30;99.90;;;;;;5053800;28;19916;-59
2021/12/19 12:36:10;;;;;;;;;;;8.30;99.90;;;;;;5071572;28;19921;-60
2021/12/19 12:38:36;;;;;;;;;;;8.30;99.90;;;;;;5072119;28;19932;-63
2021/12/19 12:41:08;;;;;;;;;;;8.30;99.90;;;;;;5054010;28;19916;-61
2021/12/19 12:43:34;;;;;;;;;;;8.40;99.90;;;;;;5054167;28;20306;-60
2021/12/19 12:46:01;;;;;;;;;;;8.40;99.90;;;;;;5071639;28;19916;-61
2021/12/19 12:48:26;;;;;;;;;;;8.40;99.90;;;;;;5071766;28;20286;-62
2021/12/19 12:50:52;;;;;;;;;;;8.40;99.90;;;;;;5072032;28;19916;-60
2021/12/19 12:53:27;;;;;;;;;;;8.40;99.90;;;;;;5053962;28;19939;-61
2021/12/19 12:56:21;;;;;;;;;;;8.40;99.90;;;;;;5071747;28;19916;-62
2021/12/19 12:58:48;;;;;;;;;;;8.40;99.90;;;;;;5051220;28;20455;-61
2021/12/19 13:01:18;;;;;;;;;;;8.40;99.90;;;;;;5071533;28;20374;-61
2021/12/19 13:03:57;;;;;;;;;;;8.40;99.90;;;;;;5071573;28;19942;-62
2021/12/19 13:06:36;;;;;;;;;;;8.40;99.90;;;;;;5071639;28;19947;-59
2021/12/19 13:09:16;;;;;;;;;;;8.40;99.90;;;;;;5071285;28;19939;-62
2021/12/19 13:11:43;;;;;;;;;;;8.40;99.90;;;;;;5071664;28;19924;-61
2021/12/19 13:14:09;;;;;;;;;;;8.40;99.90;;;;;;5071325;28;20482;-62
2021/12/19 13:17:01;;;;;;;;;;;8.40;99.90;;;;;;5071277;28;19926;-61
2021/12/19 13:19:34;;;;;;;;;;;8.40;99.90;;;;;;5067198;28;19932;-61
2021/12/19 13:22:00;;;;;;;;;;;8.40;99.90;;;;;;5071194;28;19922;-61
2021/12/19 13:24:25;;;;;;;;;;;8.40;99.90;;;;;;5071287;28;19994;-65
2021/12/19 13:27:04;;;;;;;;;;;8.40;99.90;;;;;;5071043;28;20401;-63
2021/12/19 13:29:30;;;;;;;;;;;8.40;99.90;;;;;;5071072;28;19923;-62
2021/12/19 13:32:31;;;;;;;;;;;8.40;99.90;;;;;;5090029;22;19920;-62
2021/12/19 13:34:57;;;;;;;;;;;8.40;99.90;;;;;;5009136;28;20064;-62
2021/12/19 13:37:23;;;;;;;;;;;8.40;99.90;;;;;;5042106;28;19921;-62
2021/12/19 13:40:06;;;;;;;;;;;8.30;99.90;;;;;;5050979;28;19916;-62
2021/12/19 13:42:43;;;;;;;;;;;8.30;99.90;;;;;;5030807;28;19944;-62
2021/12/19 13:45:28;;;;;;;;;;;8.30;99.90;;;;;;5031299;28;19917;-62
2021/12/19 13:47:55;;;;;;;;;;;8.30;99.90;;;;;;5030677;28;19921;-62
2021/12/19 13:50:20;;;;;;;;;;;8.30;99.90;;;;;;5030908;28;19967;-62
2021/12/19 13:52:46;;;;;;;;;;;8.30;99.90;;;;;;5030410;28;19964;-63
2021/12/19 13:55:14;;;;;;;;;;;8.30;99.90;;;;;;5031065;28;20353;-63
2021/12/19 13:57:40;;;;;;;;;;;8.30;99.90;;;;;;5030998;28;19920;-62
2021/12/19 14:00:07;;;;;;;;;;;8.30;99.90;;;;;;5030761;28;20004;-62
2021/12/19 14:02:36;;;;;;;;;;;8.30;99.90;;;;;;5039987;28;19917;-62
2021/12/19 14:05:02;;;;;;;;;;;8.30;99.90;;;;;;5039453;28;19947;-63
2021/12/19 14:07:31;;;;;;;;;;;8.30;99.90;;;;;;5041070;28;19932;-62
2021/12/19 14:10:02;;;;;;;;;;;8.30;99.90;;;;;;5030133;28;19917;-62
2021/12/19 14:12:51;;;;;;;;;;;8.30;99.90;;;;;;5040009;28;19995;-62
2021/12/19 14:15:15;;;;;;;;;;;8.30;99.90;;;;;;5040612;28;20342;-62
2021/12/19 14:17:40;;;;;;;;;;;8.30;99.90;;;;;;5036109;28;19964;-62
2021/12/19 14:20:06;;;;;;;;;;;8.30;99.90;;;;;;5039900;28;19924;-62
2021/12/19 14:22:31;;;;;;;;;;;8.30;99.90;;;;;;5040259;28;19917;-62
2021/12/19 14:24:58;;;;;;;;;;;8.30;99.90;;;;;;5038621;28;19921;-62
2021/12/19 14:27:36;;;;;;;;;;;8.30;99.90;;;;;;5038966;28;20035;-62
2021/12/19 14:30:05;;;;;;;;;;;8.30;99.90;;;;;;5036466;28;19924;-62
2021/12/19 14:32:33;;;;;;;;;;;8.30;99.90;;;;;;5038570;28;19943;-62
2021/12/19 14:35:17;;;;;;;;;;;8.30;99.90;;;;;;5040810;28;19924;-62
2021/12/19 14:37:47;;;;;;;;;;;8.30;99.90;;;;;;5036815;28;19921;-62
2021/12/19 14:40:20;;;;;;;;;;;8.30;99.90;;;;;;5039062;28;19955;-63
2021/12/19 14:42:50;;;;;;;;;;;8.30;99.90;;;;;;5032864;28;20367;-62
2021/12/19 14:45:23;;;;;;;;;;;8.30;99.90;;;;;;5040502;28;20397;-62
2021/12/19 14:48:10;;;;;;;;;;;8.30;99.90;;;;;;5028301;28;19917;-62
2021/12/19 14:50:46;;;;;;;;;;;8.30;99.90;;;;;;5027059;28;20024;-63
2021/12/19 14:53:19;;;;;;;;;;;8.30;99.90;;;;;;5033248;28;20301;-62
2021/12/19 14:55:47;;;;;;;;;;;8.30;99.90;;;;;;5046724;28;19924;-63
2021/12/19 14:58:12;;;;;;;;;;;8.30;99.90;;;;;;5046838;28;19920;-63
2021/12/19 15:00:39;;;;;;;;;;;8.30;99.90;;;;;;5049192;28;20306;-62
2021/12/19 15:03:04;;;;;;;;;;;8.30;99.90;;;;;;5051010;28;19921;-63
2021/12/19 15:05:32;;;;;;;;;;;8.30;99.90;;;;;;5050927;28;20303;-63
2021/12/19 15:07:58;;;;;;;;;;;8.20;99.90;;;;;;5050938;28;19999;-63
2021/12/19 15:10:24;;;;;;;;;;;8.20;99.90;;;;;;5051116;28;20361;-62
2021/12/19 15:12:49;;;;;;;;;;;8.20;99.90;;;;;;5050968;28;20003;-62
2021/12/19 15:15:15;;;;;;;;;;;8.20;99.90;;;;;;5051194;28;19921;-62
2021/12/19 15:17:41;;;;;;;;;;;8.20;99.90;;;;;;5050850;28;19943;-62
2021/12/19 15:20:07;;;;;;;;;;;8.20;99.90;;;;;;5050921;28;20302;-62
2021/12/19 15:22:33;;;;;;;;;;;8.20;99.90;;;;;;5050607;28;19943;-62
2021/12/19 15:24:58;;;;;;;;;;;8.30;99.90;;;;;;5050990;28;19999;-62
2021/12/19 15:27:25;;;;;;;;;;;8.30;99.90;;;;;;5050991;28;19920;-63
2021/12/19 15:29:50;;;;;;;;;;;8.30;99.90;;;;;;5050805;28;20348;-63
2021/12/19 15:32:16;;;;;;;;;;;8.30;99.90;;;;;;5049207;28;20007;-63
2021/12/19 15:34:42;;;;;;;;;;;8.30;99.90;;;;;;5049516;28;20412;-62
2021/12/19 15:37:07;;;;;;;;;;;8.20;99.90;;;;;;5049387;28;19921;-60